sensor_id;sensor_type;location;lat;lon;timestamp;pressure;altitude;pressure_sealevel;temperature;humidity
68230;BME280;55048;52.220;5.160;2022-11-24T00:00:28;100041.34;;;9.06;89.02
68230;BME280;55048;52.220;5.160;2022-11-24T00:02:54;99938.91;;;8.39;89.13
68230;BME280;55048;52.220;5.160;2022-11-24T00:05:19;99924.22;;;8.31;88.83
68230;BME280;55048;52.220;5.160;2022-11-24T00:07:45;99995.69;;;8.82;89.09
68230;BME280;55048;52.220;5.160;2022-11-24T00:10:10;100049.97;;;9.18;88.92
68230;BME280;55048;52.220;5.160;2022-11-24T00:12:36;100074.97;;;9.22;88.66
68230;BME280;55048;52.220;5.160;2022-11-24T00:15:01;100073.63;;;9.19;88.35
68230;BME280;55048;52.220;5.160;2022-11-24T00:17:27;100078.44;;;9.23;88.54
68230;BME280;55048;52.220;5.160;2022-11-24T00:19:54;100089.75;;;9.35;88.28
68230;BME280;55048;52.220;5.160;2022-11-24T00:22:19;100010.09;;;8.69;88.36
68230;BME280;55048;52.220;5.160;2022-11-24T00:24:45;100066.41;;;9.15;88.04
68230;BME280;55048;52.220;5.160;2022-11-24T00:27:10;100063.84;;;9.03;88.15
68230;BME280;55048;52.220;5.160;2022-11-24T00:29:35;100036.34;;;8.87;88.24
68230;BME280;55048;52.220;5.160;2022-11-24T00:32:02;99798.25;;;7.29;87.84
68230;BME280;55048;52.220;5.160;2022-11-24T00:34:30;100077.44;;;9.07;88.06
68230;BME280;55048;52.220;5.160;2022-11-24T00:36:55;100065.09;;;8.96;88.71
68230;BME280;55048;52.220;5.160;2022-11-24T00:39:21;100084.59;;;9.06;88.80
68230;BME280;55048;52.220;5.160;2022-11-24T00:41:46;100023.59;;;8.67;88.53
68230;BME280;55048;52.220;5.160;2022-11-24T00:44:12;100085.88;;;9.04;88.38
68230;BME280;55048;52.220;5.160;2022-11-24T00:46:37;100109.00;;;9.25;88.52
68230;BME280;55048;52.220;5.160;2022-11-24T00:49:03;100107.69;;;9.28;88.68
68230;BME280;55048;52.220;5.160;2022-11-24T00:51:29;100108.72;;;9.27;88.65
68230;BME280;55048;52.220;5.160;2022-11-24T00:53:56;100115.97;;;9.31;88.36
68230;BME280;55048;52.220;5.160;2022-11-24T00:56:23;100106.66;;;9.29;88.61
68230;BME280;55048;52.220;5.160;2022-11-24T00:58:49;100054.16;;;8.92;88.17
68230;BME280;55048;52.220;5.160;2022-11-24T01:01:17;100115.63;;;9.28;88.33
68230;BME280;55048;52.220;5.160;2022-11-24T01:03:43;100112.75;;;9.29;88.15
68230;BME280;55048;52.220;5.160;2022-11-24T01:06:19;100115.81;;;9.21;88.55
68230;BME280;55048;52.220;5.160;2022-11-24T01:08:46;100000.09;;;8.37;88.09
68230;BME280;55048;52.220;5.160;2022-11-24T01:11:17;100085.19;;;8.91;88.35
68230;BME280;55048;52.220;5.160;2022-11-24T01:13:45;100121.06;;;9.16;88.24
68230;BME280;55048;52.220;5.160;2022-11-24T01:16:14;100125.91;;;9.19;88.25
68230;BME280;55048;52.220;5.160;2022-11-24T01:18:40;100117.69;;;9.20;87.98
68230;BME280;55048;52.220;5.160;2022-11-24T01:21:06;100118.59;;;9.09;88.53
68230;BME280;55048;52.220;5.160;2022-11-24T01:23:31;100033.81;;;8.59;87.94
68230;BME280;55048;52.220;5.160;2022-11-24T01:25:56;100124.78;;;9.15;87.85
68230;BME280;55048;52.220;5.160;2022-11-24T01:28:22;100112.16;;;9.05;87.96
68230;BME280;55048;52.220;5.160;2022-11-24T01:30:58;100039.03;;;8.54;88.15
68230;BME280;55048;52.220;5.160;2022-11-24T01:33:24;100028.84;;;8.46;88.01
68230;BME280;55048;52.220;5.160;2022-11-24T01:35:49;100127.91;;;9.12;87.93
68230;BME280;55048;52.220;5.160;2022-11-24T01:38:15;100032.69;;;8.38;87.83
68230;BME280;55048;52.220;5.160;2022-11-24T01:40:40;100110.66;;;8.92;87.62
68230;BME280;55048;52.220;5.160;2022-11-24T01:43:17;100065.28;;;8.55;87.69
68230;BME280;55048;52.220;5.160;2022-11-24T01:45:44;100137.38;;;9.08;87.54
68230;BME280;55048;52.220;5.160;2022-11-24T01:48:18;100082.53;;;8.58;87.71
68230;BME280;55048;52.220;5.160;2022-11-24T01:50:48;100104.00;;;8.73;87.47
68230;BME280;55048;52.220;5.160;2022-11-24T01:53:20;100122.72;;;8.83;87.65
68230;BME280;55048;52.220;5.160;2022-11-24T01:55:47;100075.63;;;8.57;87.48
68230;BME280;55048;52.220;5.160;2022-11-24T01:58:23;100146.56;;;9.00;87.34
68230;BME280;55048;52.220;5.160;2022-11-24T02:00:51;100108.81;;;8.76;87.13
68230;BME280;55048;52.220;5.160;2022-11-24T02:03:22;100095.66;;;8.64;87.01
68230;BME280;55048;52.220;5.160;2022-11-24T02:06:03;100146.06;;;9.03;87.25
68230;BME280;55048;52.220;5.160;2022-11-24T02:08:48;100097.50;;;8.64;86.83
68230;BME280;55048;52.220;5.160;2022-11-24T02:11:15;100142.78;;;8.79;87.45
68230;BME280;55048;52.220;5.160;2022-11-24T02:13:41;100171.16;;;8.96;87.29
68230;BME280;55048;52.220;5.160;2022-11-24T02:16:10;100163.28;;;9.01;87.13
68230;BME280;55048;52.220;5.160;2022-11-24T02:18:37;100162.38;;;8.95;87.23
68230;BME280;55048;52.220;5.160;2022-11-24T02:21:04;100166.81;;;9.06;87.16
68230;BME280;55048;52.220;5.160;2022-11-24T02:23:39;100183.47;;;9.02;87.20
68230;BME280;55048;52.220;5.160;2022-11-24T02:28:47;100128.56;;;8.52;87.39
68230;BME280;55048;52.220;5.160;2022-11-24T02:31:12;100000.19;;;7.80;87.02
68230;BME280;55048;52.220;5.160;2022-11-24T02:33:38;100160.63;;;8.84;87.38
68230;BME280;55048;52.220;5.160;2022-11-24T02:36:04;100003.81;;;7.91;87.03
68230;BME280;55048;52.220;5.160;2022-11-24T02:38:32;100141.34;;;8.72;87.49
68230;BME280;55048;52.220;5.160;2022-11-24T02:40:59;99917.69;;;7.38;86.94
68230;BME280;55048;52.220;5.160;2022-11-24T02:43:29;99942.72;;;7.47;86.80
68230;BME280;55048;52.220;5.160;2022-11-24T02:45:56;100001.38;;;7.73;86.91
68230;BME280;55048;52.220;5.160;2022-11-24T02:48:22;100192.63;;;9.11;87.09
68230;BME280;55048;52.220;5.160;2022-11-24T02:50:48;100204.94;;;9.00;87.14
68230;BME280;55048;52.220;5.160;2022-11-24T02:53:13;100205.00;;;9.05;87.01
68230;BME280;55048;52.220;5.160;2022-11-24T02:55:39;100051.94;;;8.16;86.52
68230;BME280;55048;52.220;5.160;2022-11-24T02:58:04;100203.78;;;9.13;86.77
68230;BME280;55048;52.220;5.160;2022-11-24T03:00:29;100150.75;;;8.79;86.77
68230;BME280;55048;52.220;5.160;2022-11-24T03:02:55;100204.69;;;9.02;86.57
68230;BME280;55048;52.220;5.160;2022-11-24T03:05:20;100144.97;;;8.82;86.45
68230;BME280;55048;52.220;5.160;2022-11-24T03:07:46;100118.19;;;8.67;86.41
68230;BME280;55048;52.220;5.160;2022-11-24T03:10:11;100173.25;;;8.93;86.17
68230;BME280;55048;52.220;5.160;2022-11-24T03:12:37;100206.84;;;9.22;86.21
68230;BME280;55048;52.220;5.160;2022-11-24T03:15:03;100184.00;;;9.04;86.04
68230;BME280;55048;52.220;5.160;2022-11-24T03:17:29;100210.88;;;9.24;85.99
68230;BME280;55048;52.220;5.160;2022-11-24T03:19:54;100173.91;;;9.01;85.96
68230;BME280;55048;52.220;5.160;2022-11-24T03:22:19;100182.06;;;8.99;85.66
68230;BME280;55048;52.220;5.160;2022-11-24T03:24:45;100191.25;;;9.08;85.65
68230;BME280;55048;52.220;5.160;2022-11-24T03:27:10;100189.56;;;9.02;85.39
68230;BME280;55048;52.220;5.160;2022-11-24T03:29:36;100134.09;;;8.67;85.54
68230;BME280;55048;52.220;5.160;2022-11-24T03:32:01;100125.22;;;8.73;85.40
68230;BME280;55048;52.220;5.160;2022-11-24T03:34:27;99984.31;;;7.80;85.14
68230;BME280;55048;52.220;5.160;2022-11-24T03:36:52;100150.25;;;8.65;85.23
68230;BME280;55048;52.220;5.160;2022-11-24T03:39:18;100180.06;;;8.89;85.02
68230;BME280;55048;52.220;5.160;2022-11-24T03:41:43;100162.94;;;8.80;85.06
68230;BME280;55048;52.220;5.160;2022-11-24T03:44:09;100187.88;;;8.96;84.87
68230;BME280;55048;52.220;5.160;2022-11-24T03:46:34;100225.88;;;9.18;85.10
68230;BME280;55048;52.220;5.160;2022-11-24T03:49:00;100183.72;;;9.00;85.16
68230;BME280;55048;52.220;5.160;2022-11-24T03:51:25;99986.47;;;7.66;84.58
68230;BME280;55048;52.220;5.160;2022-11-24T03:53:51;100173.63;;;8.85;84.74
68230;BME280;55048;52.220;5.160;2022-11-24T03:56:16;100218.28;;;9.05;84.71
68230;BME280;55048;52.220;5.160;2022-11-24T03:58:41;100211.13;;;9.06;84.53
68230;BME280;55048;52.220;5.160;2022-11-24T04:01:07;100164.09;;;8.67;84.37
68230;BME280;55048;52.220;5.160;2022-11-24T04:03:33;100198.16;;;8.92;84.06
68230;BME280;55048;52.220;5.160;2022-11-24T04:05:58;100228.78;;;9.00;84.05
68230;BME280;55048;52.220;5.160;2022-11-24T04:08:24;100193.75;;;8.81;84.06
68230;BME280;55048;52.220;5.160;2022-11-24T04:10:53;100269.22;;;9.24;84.03
68230;BME280;55048;52.220;5.160;2022-11-24T04:13:20;100272.69;;;9.25;83.56
68230;BME280;55048;52.220;5.160;2022-11-24T04:15:46;100214.69;;;9.00;84.12
68230;BME280;55048;52.220;5.160;2022-11-24T04:18:12;100168.25;;;8.63;83.64
68230;BME280;55048;52.220;5.160;2022-11-24T04:20:39;100270.13;;;9.30;83.74
68230;BME280;55048;52.220;5.160;2022-11-24T04:23:04;100282.59;;;9.29;84.01
68230;BME280;55048;52.220;5.160;2022-11-24T04:25:30;100245.94;;;9.09;84.12
68230;BME280;55048;52.220;5.160;2022-11-24T04:27:56;100291.34;;;9.30;84.42
68230;BME280;55048;52.220;5.160;2022-11-24T04:30:23;100287.97;;;9.34;84.29
68230;BME280;55048;52.220;5.160;2022-11-24T04:32:49;100291.50;;;9.40;84.36
68230;BME280;55048;52.220;5.160;2022-11-24T04:35:14;100096.94;;;8.16;83.89
68230;BME280;55048;52.220;5.160;2022-11-24T04:37:40;100294.47;;;9.43;84.30
68230;BME280;55048;52.220;5.160;2022-11-24T04:40:07;100305.66;;;9.45;84.25
68230;BME280;55048;52.220;5.160;2022-11-24T04:42:33;100295.47;;;9.37;84.56
68230;BME280;55048;52.220;5.160;2022-11-24T04:44:58;100206.44;;;8.79;84.67
68230;BME280;55048;52.220;5.160;2022-11-24T04:47:24;100311.28;;;9.49;84.45
68230;BME280;55048;52.220;5.160;2022-11-24T04:49:51;100320.63;;;9.52;84.58
68230;BME280;55048;52.220;5.160;2022-11-24T04:52:17;100145.00;;;8.37;85.00
68230;BME280;55048;52.220;5.160;2022-11-24T04:54:44;100311.69;;;9.41;85.12
68230;BME280;55048;52.220;5.160;2022-11-24T04:57:15;100288.28;;;9.21;85.07
68230;BME280;55048;52.220;5.160;2022-11-24T04:59:41;100308.53;;;9.27;85.12
68230;BME280;55048;52.220;5.160;2022-11-24T05:02:07;100304.53;;;9.25;85.17
68230;BME280;55048;52.220;5.160;2022-11-24T05:04:33;100327.31;;;9.37;85.36
68230;BME280;55048;52.220;5.160;2022-11-24T05:06:58;100257.56;;;8.91;84.96
68230;BME280;55048;52.220;5.160;2022-11-24T05:09:24;100324.31;;;9.34;85.49
68230;BME280;55048;52.220;5.160;2022-11-24T05:11:49;100341.38;;;9.38;85.40
68230;BME280;55048;52.220;5.160;2022-11-24T05:14:15;100352.16;;;9.48;85.01
68230;BME280;55048;52.220;5.160;2022-11-24T05:16:40;100343.44;;;9.36;85.00
68230;BME280;55048;52.220;5.160;2022-11-24T05:19:05;100376.03;;;9.48;85.48
68230;BME280;55048;52.220;5.160;2022-11-24T05:21:31;100353.50;;;9.34;85.19
68230;BME280;55048;52.220;5.160;2022-11-24T05:23:56;100339.97;;;9.18;85.28
68230;BME280;55048;52.220;5.160;2022-11-24T05:26:22;100356.28;;;9.27;84.79
68230;BME280;55048;52.220;5.160;2022-11-24T05:28:47;100302.22;;;8.83;84.24
68230;BME280;55048;52.220;5.160;2022-11-24T05:31:12;100315.50;;;8.71;83.93
68230;BME280;55048;52.220;5.160;2022-11-24T05:33:38;100372.19;;;9.10;83.16
68230;BME280;55048;52.220;5.160;2022-11-24T05:36:05;100364.28;;;8.99;82.54
68230;BME280;55048;52.220;5.160;2022-11-24T05:38:32;100381.72;;;8.94;82.23
68230;BME280;55048;52.220;5.160;2022-11-24T05:41:04;100336.25;;;8.74;82.14
68230;BME280;55048;52.220;5.160;2022-11-24T05:43:30;100405.19;;;9.14;82.43
68230;BME280;55048;52.220;5.160;2022-11-24T05:45:59;100353.22;;;8.61;82.67
68230;BME280;55048;52.220;5.160;2022-11-24T05:48:25;100372.22;;;8.70;83.08
68230;BME280;55048;52.220;5.160;2022-11-24T05:50:55;100284.41;;;8.14;83.17
68230;BME280;55048;52.220;5.160;2022-11-24T05:53:21;100440.59;;;9.08;83.39
68230;BME280;55048;52.220;5.160;2022-11-24T05:55:46;100380.97;;;8.71;83.51
68230;BME280;55048;52.220;5.160;2022-11-24T05:58:12;100368.81;;;8.46;83.70
68230;BME280;55048;52.220;5.160;2022-11-24T06:00:37;100389.06;;;8.64;83.68
68230;BME280;55048;52.220;5.160;2022-11-24T06:03:02;100466.91;;;9.10;83.94
68230;BME280;55048;52.220;5.160;2022-11-24T06:05:28;100443.50;;;8.95;83.95
68230;BME280;55048;52.220;5.160;2022-11-24T06:07:54;100459.06;;;9.03;84.16
68230;BME280;55048;52.220;5.160;2022-11-24T06:10:21;100467.50;;;9.00;84.29
68230;BME280;55048;52.220;5.160;2022-11-24T06:12:48;100459.31;;;9.02;84.05
68230;BME280;55048;52.220;5.160;2022-11-24T06:15:13;100353.38;;;8.31;83.82
68230;BME280;55048;52.220;5.160;2022-11-24T06:17:39;100421.44;;;8.66;83.67
68230;BME280;55048;52.220;5.160;2022-11-24T06:20:06;100426.19;;;8.64;83.88
68230;BME280;55048;52.220;5.160;2022-11-24T06:22:32;100475.91;;;8.97;83.92
68230;BME280;55048;52.220;5.160;2022-11-24T06:24:57;100470.31;;;8.70;84.27
68230;BME280;55048;52.220;5.160;2022-11-24T06:27:23;100443.47;;;8.55;83.81
68230;BME280;55048;52.220;5.160;2022-11-24T06:29:48;100299.19;;;7.63;83.75
68230;BME280;55048;52.220;5.160;2022-11-24T06:32:14;100475.38;;;8.72;83.95
68230;BME280;55048;52.220;5.160;2022-11-24T06:34:39;100423.31;;;8.30;83.86
68230;BME280;55048;52.220;5.160;2022-11-24T06:37:05;100366.19;;;7.76;83.75
68230;BME280;55048;52.220;5.160;2022-11-24T06:39:30;100486.13;;;8.65;84.02
68230;BME280;55048;52.220;5.160;2022-11-24T06:41:55;100379.09;;;7.84;84.31
68230;BME280;55048;52.220;5.160;2022-11-24T06:44:21;100518.16;;;8.75;84.43
68230;BME280;55048;52.220;5.160;2022-11-24T06:46:47;100347.31;;;7.60;83.93
68230;BME280;55048;52.220;5.160;2022-11-24T06:49:12;100479.88;;;8.48;84.88
68230;BME280;55048;52.220;5.160;2022-11-24T06:51:38;100534.06;;;8.63;84.48
68230;BME280;55048;52.220;5.160;2022-11-24T06:54:09;100541.22;;;8.86;84.75
68230;BME280;55048;52.220;5.160;2022-11-24T06:56:35;100537.16;;;8.84;84.70
68230;BME280;55048;52.220;5.160;2022-11-24T06:59:00;100480.47;;;8.50;84.76
68230;BME280;55048;52.220;5.160;2022-11-24T07:01:27;100551.34;;;8.89;85.08
68230;BME280;55048;52.220;5.160;2022-11-24T07:03:54;100496.16;;;8.51;85.19
68230;BME280;55048;52.220;5.160;2022-11-24T07:06:21;100550.53;;;8.89;85.33
68230;BME280;55048;52.220;5.160;2022-11-24T07:08:47;100567.03;;;8.91;85.20
68230;BME280;55048;52.220;5.160;2022-11-24T07:11:15;100569.91;;;8.89;85.54
68230;BME280;55048;52.220;5.160;2022-11-24T07:13:41;100363.16;;;7.49;85.51
68230;BME280;55048;52.220;5.160;2022-11-24T07:16:18;100509.63;;;8.50;86.09
68230;BME280;55048;52.220;5.160;2022-11-24T07:18:44;100452.53;;;8.00;85.88
68230;BME280;55048;52.220;5.160;2022-11-24T07:21:10;100574.03;;;8.85;86.46
68230;BME280;55048;52.220;5.160;2022-11-24T07:23:36;100548.34;;;8.62;86.10
68230;BME280;55048;52.220;5.160;2022-11-24T07:26:06;100361.50;;;7.36;86.16
68230;BME280;55048;52.220;5.160;2022-11-24T07:28:32;100585.91;;;8.71;86.19
68230;BME280;55048;52.220;5.160;2022-11-24T07:30:57;100521.47;;;8.35;86.50
68230;BME280;55048;52.220;5.160;2022-11-24T07:33:24;100612.94;;;8.91;86.24
68230;BME280;55048;52.220;5.160;2022-11-24T07:35:53;100612.81;;;8.86;86.85
68230;BME280;55048;52.220;5.160;2022-11-24T07:38:19;100593.66;;;8.73;86.81
68230;BME280;55048;52.220;5.160;2022-11-24T07:40:45;100464.03;;;7.82;86.97
68230;BME280;55048;52.220;5.160;2022-11-24T07:43:11;100588.78;;;8.58;86.63
68230;BME280;55048;52.220;5.160;2022-11-24T07:45:36;100452.00;;;7.68;86.26
68230;BME280;55048;52.220;5.160;2022-11-24T07:48:02;100645.31;;;8.93;86.82
68230;BME280;55048;52.220;5.160;2022-11-24T07:50:27;100583.16;;;8.54;86.99
68230;BME280;55048;52.220;5.160;2022-11-24T07:52:53;100566.78;;;8.46;86.84
68230;BME280;55048;52.220;5.160;2022-11-24T07:55:18;100515.34;;;8.11;86.72
68230;BME280;55048;52.220;5.160;2022-11-24T07:57:43;100661.81;;;9.07;86.53
68230;BME280;55048;52.220;5.160;2022-11-24T08:00:09;100657.66;;;9.00;86.53
68230;BME280;55048;52.220;5.160;2022-11-24T08:02:35;100617.97;;;8.69;86.75
68230;BME280;55048;52.220;5.160;2022-11-24T08:05:00;100622.16;;;8.77;86.82
68230;BME280;55048;52.220;5.160;2022-11-24T08:07:25;100651.31;;;8.89;87.10
68230;BME280;55048;52.220;5.160;2022-11-24T08:09:51;100633.91;;;8.81;87.13
68230;BME280;55048;52.220;5.160;2022-11-24T08:12:17;100639.22;;;8.81;87.47
68230;BME280;55048;52.220;5.160;2022-11-24T08:14:49;100646.34;;;8.92;87.34
68230;BME280;55048;52.220;5.160;2022-11-24T08:17:18;100696.66;;;9.11;87.43
68230;BME280;55048;52.220;5.160;2022-11-24T08:19:44;100681.31;;;9.13;87.56
68230;BME280;55048;52.220;5.160;2022-11-24T08:22:09;100552.31;;;8.18;87.53
68230;BME280;55048;52.220;5.160;2022-11-24T08:24:35;100684.41;;;8.98;88.20
68230;BME280;55048;52.220;5.160;2022-11-24T08:27:00;100691.13;;;9.01;87.60
68230;BME280;55048;52.220;5.160;2022-11-24T08:29:29;100698.72;;;9.09;87.42
68230;BME280;55048;52.220;5.160;2022-11-24T08:31:55;100625.09;;;8.57;88.15
68230;BME280;55048;52.220;5.160;2022-11-24T08:34:22;100577.06;;;8.24;87.98
68230;BME280;55048;52.220;5.160;2022-11-24T08:36:48;100636.28;;;8.59;87.81
68230;BME280;55048;52.220;5.160;2022-11-24T08:39:14;100714.31;;;9.05;87.95
68230;BME280;55048;52.220;5.160;2022-11-24T08:41:41;100647.25;;;8.63;87.91
68230;BME280;55048;52.220;5.160;2022-11-24T08:44:07;100696.50;;;8.82;87.88
68230;BME280;55048;52.220;5.160;2022-11-24T08:46:34;100518.00;;;7.81;87.60
68230;BME280;55048;52.220;5.160;2022-11-24T08:49:00;100723.28;;;9.04;87.89
68230;BME280;55048;52.220;5.160;2022-11-24T08:51:26;100604.63;;;8.34;87.82
68230;BME280;55048;52.220;5.160;2022-11-24T08:53:56;100735.53;;;9.17;87.69
68230;BME280;55048;52.220;5.160;2022-11-24T08:56:23;100527.13;;;7.85;87.72
68230;BME280;55048;52.220;5.160;2022-11-24T08:58:48;100699.63;;;8.91;88.19
68230;BME280;55048;52.220;5.160;2022-11-24T09:01:15;100651.19;;;8.72;87.94
68230;BME280;55048;52.220;5.160;2022-11-24T09:03:41;100725.16;;;9.15;87.88
68230;BME280;55048;52.220;5.160;2022-11-24T09:06:07;100723.41;;;9.21;88.18
68230;BME280;55048;52.220;5.160;2022-11-24T09:08:36;100702.88;;;9.16;88.17
68230;BME280;55048;52.220;5.160;2022-11-24T09:11:05;100668.03;;;8.89;88.17
68230;BME280;55048;52.220;5.160;2022-11-24T09:13:31;100719.63;;;9.29;87.92
68230;BME280;55048;52.220;5.160;2022-11-24T09:16:01;100778.72;;;9.59;87.72
68230;BME280;55048;52.220;5.160;2022-11-24T09:18:27;100731.25;;;9.28;87.76
68230;BME280;55048;52.220;5.160;2022-11-24T09:20:52;100586.13;;;8.46;87.35
68230;BME280;55048;52.220;5.160;2022-11-24T09:23:21;100627.56;;;8.82;87.65
68230;BME280;55048;52.220;5.160;2022-11-24T09:25:46;100754.59;;;9.61;87.54
68230;BME280;55048;52.220;5.160;2022-11-24T09:28:12;100664.72;;;9.06;87.33
68230;BME280;55048;52.220;5.160;2022-11-24T09:30:37;100722.88;;;9.42;87.30
68230;BME280;55048;52.220;5.160;2022-11-24T09:33:02;100728.28;;;9.48;87.21
68230;BME280;55048;52.220;5.160;2022-11-24T09:35:28;100756.56;;;9.65;87.30
68230;BME280;55048;52.220;5.160;2022-11-24T09:37:53;100772.13;;;9.74;87.15
68230;BME280;55048;52.220;5.160;2022-11-24T09:40:19;100608.28;;;8.75;87.00
68230;BME280;55048;52.220;5.160;2022-11-24T09:42:59;100792.19;;;9.93;86.89
68230;BME280;55048;52.220;5.160;2022-11-24T09:45:41;100745.25;;;9.58;86.92
68230;BME280;55048;52.220;5.160;2022-11-24T09:48:26;100809.88;;;9.99;87.02
68230;BME280;55048;52.220;5.160;2022-11-24T09:50:56;100788.63;;;9.87;86.94
68230;BME280;55048;52.220;5.160;2022-11-24T09:53:31;100816.09;;;10.05;86.94
68230;BME280;55048;52.220;5.160;2022-11-24T09:56:03;100812.19;;;10.07;86.61
68230;BME280;55048;52.220;5.160;2022-11-24T09:58:52;100814.84;;;10.07;86.71
68230;BME280;55048;52.220;5.160;2022-11-24T10:01:23;100702.44;;;9.43;86.70
68230;BME280;55048;52.220;5.160;2022-11-24T10:03:51;100732.78;;;9.59;86.21
68230;BME280;55048;52.220;5.160;2022-11-24T10:06:37;100734.97;;;9.62;86.08
68230;BME280;55048;52.220;5.160;2022-11-24T10:09:39;100814.72;;;10.14;86.19
68230;BME280;55048;52.220;5.160;2022-11-24T10:23:33;100841.88;;;10.28;85.38
68230;BME280;55048;52.220;5.160;2022-11-24T10:26:05;100768.22;;;9.76;85.54
68230;BME280;55048;52.220;5.160;2022-11-24T10:28:39;100765.66;;;9.69;84.87
68230;BME280;55048;52.220;5.160;2022-11-24T10:31:21;100829.03;;;10.13;85.13
68230;BME280;55048;52.220;5.160;2022-11-24T10:33:47;100807.88;;;10.06;85.23
68230;BME280;55048;52.220;5.160;2022-11-24T10:36:19;100728.50;;;9.58;85.13
68230;BME280;55048;52.220;5.160;2022-11-24T10:39:12;100803.94;;;10.20;84.65
68230;BME280;55048;52.220;5.160;2022-11-24T10:41:50;100830.28;;;10.45;84.72
68230;BME280;55048;52.220;5.160;2022-11-24T10:44:16;100790.44;;;10.22;84.78
68230;BME280;55048;52.220;5.160;2022-11-24T10:46:42;100810.31;;;10.31;84.34
68230;BME280;55048;52.220;5.160;2022-11-24T10:49:16;100830.19;;;10.29;84.36
68230;BME280;55048;52.220;5.160;2022-11-24T10:52:05;100869.31;;;10.57;84.39
68230;BME280;55048;52.220;5.160;2022-11-24T10:54:34;100864.94;;;10.51;84.38
68230;BME280;55048;52.220;5.160;2022-11-24T10:57:00;100822.56;;;10.32;84.35
68230;BME280;55048;52.220;5.160;2022-11-24T11:01:52;100874.22;;;10.77;83.67
68230;BME280;55048;52.220;5.160;2022-11-24T11:04:20;100878.09;;;10.97;83.15
68230;BME280;55048;52.220;5.160;2022-11-24T11:06:45;100858.75;;;10.73;82.97
68230;BME280;55048;52.220;5.160;2022-11-24T11:09:21;100780.59;;;10.34;82.80
68230;BME280;55048;52.220;5.160;2022-11-24T11:11:47;100814.53;;;10.56;82.37
68230;BME280;55048;52.220;5.160;2022-11-24T11:14:30;100887.44;;;11.00;81.85
68230;BME280;55048;52.220;5.160;2022-11-24T11:16:56;100832.28;;;10.67;81.91
68230;BME280;55048;52.220;5.160;2022-11-24T11:19:44;100893.59;;;11.01;81.43
68230;BME280;55048;52.220;5.160;2022-11-24T11:24:38;100895.75;;;11.04;81.62
68230;BME280;55048;52.220;5.160;2022-11-24T11:27:19;100903.75;;;11.04;81.54
68230;BME280;55048;52.220;5.160;2022-11-24T11:29:46;100893.91;;;11.04;81.61
68230;BME280;55048;52.220;5.160;2022-11-24T11:32:20;100825.34;;;10.66;81.21
68230;BME280;55048;52.220;5.160;2022-11-24T11:34:47;100897.34;;;11.16;81.14
68230;BME280;55048;52.220;5.160;2022-11-24T11:37:13;100847.44;;;10.95;81.02
68230;BME280;55048;52.220;5.160;2022-11-24T11:39:55;100867.34;;;11.21;81.02
68230;BME280;55048;52.220;5.160;2022-11-24T11:45:01;100887.03;;;11.37;80.40
68230;BME280;55048;52.220;5.160;2022-11-24T11:47:41;100859.34;;;11.21;80.06
68230;BME280;55048;52.220;5.160;2022-11-24T11:50:15;100881.72;;;11.37;79.94
68230;BME280;55048;52.220;5.160;2022-11-24T12:22:55;100884.41;;;11.54;78.50
68230;BME280;55048;52.220;5.160;2022-11-24T12:25:34;100899.75;;;11.63;78.09
68230;BME280;55048;52.220;5.160;2022-11-24T12:30:34;100880.84;;;11.48;78.20
68230;BME280;55048;52.220;5.160;2022-11-24T12:43:35;100909.94;;;11.66;78.09
68230;BME280;55048;52.220;5.160;2022-11-24T12:48:42;100914.09;;;11.79;78.17
68230;BME280;55048;52.220;5.160;2022-11-24T12:51:24;100894.25;;;11.53;78.18
68230;BME280;55048;52.220;5.160;2022-11-24T12:53:52;100884.16;;;11.55;78.17
68230;BME280;55048;52.220;5.160;2022-11-24T12:56:38;100844.28;;;11.27;78.07
68230;BME280;55048;52.220;5.160;2022-11-24T13:02:03;100892.00;;;11.62;77.83
68230;BME280;55048;52.220;5.160;2022-11-24T13:04:51;100903.97;;;11.76;77.81
68230;BME280;55048;52.220;5.160;2022-11-24T13:07:38;100866.47;;;11.49;77.71
68230;BME280;55048;52.220;5.160;2022-11-24T13:10:30;100902.75;;;11.67;78.11
68230;BME280;55048;52.220;5.160;2022-11-24T13:15:23;100903.84;;;11.54;78.26
68230;BME280;55048;52.220;5.160;2022-11-24T13:17:48;100802.53;;;10.98;78.04
68230;BME280;55048;52.220;5.160;2022-11-24T13:22:50;100793.06;;;10.91;77.84
68230;BME280;55048;52.220;5.160;2022-11-24T13:25:33;100898.22;;;11.67;78.27
68230;BME280;55048;52.220;5.160;2022-11-24T13:28:00;100904.69;;;11.71;77.92
68230;BME280;55048;52.220;5.160;2022-11-24T13:36:27;100908.69;;;11.74;77.69
68230;BME280;55048;52.220;5.160;2022-11-24T13:38:53;100874.94;;;11.46;77.85
68230;BME280;55048;52.220;5.160;2022-11-24T13:47:03;100912.91;;;11.70;77.93
68230;BME280;55048;52.220;5.160;2022-11-24T13:49:43;100885.22;;;11.54;78.00
68230;BME280;55048;52.220;5.160;2022-11-24T13:57:41;100771.31;;;10.77;77.70
68230;BME280;55048;52.220;5.160;2022-11-24T14:00:29;100910.16;;;11.65;77.92
68230;BME280;55048;52.220;5.160;2022-11-24T14:03:18;100910.47;;;11.68;77.92
68230;BME280;55048;52.220;5.160;2022-11-24T14:05:50;100879.72;;;11.44;77.66
68230;BME280;55048;52.220;5.160;2022-11-24T14:08:36;100833.72;;;11.15;77.72
68230;BME280;55048;52.220;5.160;2022-11-24T14:11:03;100917.00;;;11.61;77.62
68230;BME280;55048;52.220;5.160;2022-11-24T14:13:35;100820.34;;;10.98;77.74
68230;BME280;55048;52.220;5.160;2022-11-24T14:16:04;100902.00;;;11.55;77.30
68230;BME280;55048;52.220;5.160;2022-11-24T14:18:40;100834.09;;;11.23;77.44
68230;BME280;55048;52.220;5.160;2022-11-24T14:21:29;100899.81;;;11.52;77.41
68230;BME280;55048;52.220;5.160;2022-11-24T14:24:23;100887.53;;;11.50;77.55
68230;BME280;55048;52.220;5.160;2022-11-24T14:26:49;100852.44;;;11.20;77.55
68230;BME280;55048;52.220;5.160;2022-11-24T14:29:22;100894.72;;;11.50;77.54
68230;BME280;55048;52.220;5.160;2022-11-24T14:31:53;100877.81;;;11.28;77.42
68230;BME280;55048;52.220;5.160;2022-11-24T14:34:20;100908.44;;;11.42;77.54
68230;BME280;55048;52.220;5.160;2022-11-24T14:36:46;100824.28;;;10.95;77.71